Waterloo, IA

9:40 PM CST on February 22, 2017 (GMT -0600)
Byrnes Golf Course | | Change Station
Active Advisory: Flood Warning

Elev 925 ft 42.48 °N, 92.37 °W | Updated 37 seconds ago

Clear
Clear
50.5 °F
Feels Like 50.5 °F
N
6.0
Wind Variable Wind from West

Today
High -- | Low -- °F
--% Chance of Precip.
Yesterday
High -- | Low -- °F
Precip. -- in
Pressure 29.67 in
Visibility 10.0 miles
Clouds Clear
Dew Point 46 °F
Humidity 85%
Rainfall 0.00 in
Snow Depth Not available.
6:55 AM 5:50 PM
Waning Crescent, 13% visible
METAR KALO 230254Z AUTO 28008KT 10SM CLR 10/06 A2966 RMK AO2 SLP046 T01000061 53023
Pressure 29.67 in
Visibility 10.0 miles
Clouds Clear
Dew Point 46 °F
Humidity 85%
Rainfall 0.00 in
Snow Depth Not available.
6:55 AM 5:50 PM
Waning Crescent, 13% visible
METAR KALO 230254Z AUTO 28008KT 10SM CLR 10/06 A2966 RMK AO2 SLP046 T01000061 53023

Get Your Daily Forecast Email!

Thanks for signing up!

Be on the lookout for a verification email in your inbox.

You'll start receiving the daily forecast at 8 AM.

×

10-Day Weather Forecast

Almanac

Astronomy

Feb. 22, 2017 Rise Set
Actual Time
Civil Twilight
Nautical Twilight
Astronomical Twilight
Moon
Length of Visible Light
Length of Day
Tomorrow will be .
, % of the Moon is Illuminated

Today's Extremes

State Highs State Lows

Community

WunderPhotos

Upload Photos

1,962,540 photos uploaded!

WunderBlog® & News

Nearby

Air Quality

  Air Quality AQ Index Pollutant
Not available.

Snow Depth

Station Depth Elevation

Earthquake Activity

City Distance Mag. Time & Date
Minimum magnitude displayed is 2.5.

Coastal Water Temperatures

Place Temperature

Stations

Nearby Weather Stations

Station Location Temp. Windchill Dew Point Humidity Wind Precip. Elev Updated Type
                   

Watches & Warnings

Flood Warning
Issued: 5:52 PM CST Feb. 22, 2017 – National Weather Service

... Flood Warning remains in effect until Tuesday morning...

The Flood Warning continues for
the Cedar River at Cedar Falls... or from the West Fork Cedar
River... to the Cedar Falls-Waterloo city limits.
* Until Tuesday morning.
* At 4:45 PM Wednesday the stage was 88.7 feet... or 0.7 feet above
flood stage.
* Flood stage is 88.0 feet.
* Minor flooding is occurring and is forecast to continue.
* Forecast... rise to 89.8 feet... or 1.8 feet above flood stage...
midday Thursday. Then begin falling and go below flood stage
Tuesday morning.
* Impact... at 89.7 feet... water covers the Road at 1712 and 1118
Cottage row Road.


Lat... Lon 4256 9238 4251 9245 4258 9255 4262 9255
      4262 9241 4256 9238